createdAt,value
2022-08-20T00:00:51.687Z,101495.53
2022-08-20T00:04:25.599Z,101486.53
2022-08-20T00:07:48.668Z,101494.44
2022-08-20T00:11:12.615Z,101493.06
2022-08-20T00:14:36.750Z,101489.22
2022-08-20T00:17:59.607Z,101475.94
2022-08-20T00:21:24.836Z,101468.56
2022-08-20T00:24:49.625Z,101473.78
2022-08-20T00:28:14.639Z,101470.75
2022-08-20T00:31:37.658Z,101465.03
2022-08-20T00:35:01.583Z,101468.28
2022-08-20T00:38:24.663Z,101473.41
2022-08-20T00:41:48.588Z,101459.78
2022-08-20T00:45:11.631Z,101457.94
2022-08-20T00:48:35.598Z,101453.91
2022-08-20T00:52:01.634Z,101468.31
2022-08-20T00:55:27.408Z,101455.53
2022-08-20T00:58:54.643Z,101457.19
2022-08-20T01:02:19.619Z,101459.91
2022-08-20T01:05:43.638Z,101459.34
2022-08-20T01:09:10.596Z,101462.88
2022-08-20T01:12:35.632Z,101466.66
2022-08-20T01:15:59.579Z,101470.72
2022-08-20T01:19:29.691Z,101465.53
2022-08-20T01:23:31.655Z,101467.47
2022-08-20T01:26:57.601Z,101458.72
2022-08-20T01:30:21.627Z,101445.09
2022-08-20T01:33:45.608Z,101452.75
2022-08-20T01:37:10.652Z,101449.72
2022-08-20T01:40:36.650Z,101432.59
2022-08-20T01:44:05.751Z,101438.09
2022-08-20T01:47:36.406Z,101443.25
2022-08-20T01:51:04.670Z,101442.72
2022-08-20T01:54:21.218Z,101440.81
2022-08-20T01:57:38.657Z,101447.66
2022-08-20T02:01:02.600Z,101437.81
2022-08-20T02:04:26.669Z,101435.13
2022-08-20T02:07:50.649Z,101425.00
2022-08-20T02:11:13.684Z,101423.94
2022-08-20T02:14:37.634Z,101415.44
2022-08-20T02:18:01.667Z,101425.25
2022-08-20T02:21:24.638Z,101428.53
2022-08-20T02:24:47.679Z,101418.44
2022-08-20T02:28:12.686Z,101420.09
2022-08-20T02:31:37.685Z,101426.09
2022-08-20T02:35:21.657Z,101426.06
2022-08-20T02:38:46.782Z,101425.53
2022-08-20T02:42:10.634Z,101427.16
2022-08-20T02:45:34.655Z,101426.66
2022-08-20T02:48:57.656Z,101429.09
2022-08-20T02:52:21.680Z,101417.66
2022-08-20T02:55:38.353Z,101412.47
2022-08-20T02:58:55.763Z,101407.28
2022-08-20T03:02:19.662Z,101404.31
2022-08-20T03:05:42.740Z,101411.66
2022-08-20T03:09:05.675Z,101407.59
2022-08-20T03:12:29.691Z,101403.22
2022-08-20T03:15:58.463Z,101399.81
2022-08-20T03:19:21.682Z,101404.09
2022-08-20T03:22:43.655Z,101392.06
2022-08-20T03:26:07.741Z,101402.78
2022-08-20T03:29:31.678Z,101399.78
2022-08-20T03:32:55.721Z,101405.78
2022-08-20T03:36:22.086Z,101410.47
2022-08-20T03:39:51.752Z,101410.19
2022-08-20T03:43:13.926Z,101411.31
2022-08-20T03:46:36.694Z,101414.59
2022-08-20T03:50:00.715Z,101410.22
2022-08-20T03:53:24.681Z,101415.16
2022-08-20T03:56:47.715Z,101414.84
2022-08-20T04:00:11.704Z,101421.41
2022-08-20T04:03:34.789Z,101416.19
2022-08-20T04:06:58.701Z,101408.28
2022-08-20T04:10:22.718Z,101412.69
2022-08-20T04:13:46.694Z,101422.28
2022-08-20T04:17:12.734Z,101423.41
2022-08-20T04:20:38.705Z,101415.22
2022-08-20T04:24:03.754Z,101413.84
2022-08-20T04:27:28.696Z,101415.78
2022-08-20T04:30:52.109Z,101413.00
2022-08-20T04:34:19.700Z,101401.22
2022-08-20T04:37:43.739Z,101400.44
2022-08-20T04:41:06.712Z,101394.19
2022-08-20T04:44:30.765Z,101404.00
2022-08-20T04:47:54.711Z,101410.84
2022-08-20T04:51:24.611Z,101411.66
2022-08-20T04:54:47.724Z,101434.81
2022-08-20T04:58:17.765Z,101438.06
2022-08-20T05:01:40.820Z,101430.44
2022-08-20T05:05:04.767Z,101438.59
2022-08-20T05:08:28.701Z,101440.22
2022-08-20T05:11:52.807Z,101452.75
2022-08-20T05:15:15.735Z,101458.44
2022-08-20T05:18:41.707Z,101469.56
2022-08-20T05:22:05.769Z,101481.78
2022-08-20T05:25:29.757Z,101483.88
2022-08-20T05:28:57.913Z,101474.63
2022-08-20T05:32:21.989Z,101481.63
2022-08-20T05:35:46.725Z,101477.50
2022-08-20T05:39:09.759Z,101482.31
2022-08-20T05:42:33.707Z,101483.91
2022-08-20T05:46:00.776Z,101489.34
2022-08-20T05:49:24.708Z,101498.03
2022-08-20T05:52:47.799Z,101495.50
2022-08-20T05:56:10.770Z,101510.75
2022-08-20T05:59:33.750Z,101507.72
2022-08-20T06:03:15.785Z,101507.69
2022-08-20T06:06:45.911Z,101513.53
2022-08-20T06:10:09.764Z,101522.97
2022-08-20T06:13:34.801Z,101528.66
2022-08-20T06:16:59.166Z,101513.88
2022-08-20T06:20:23.788Z,101523.22
2022-08-20T06:23:56.857Z,101535.13
2022-08-20T06:27:21.826Z,101541.88
2022-08-20T06:30:44.756Z,101544.03
2022-08-20T06:34:08.773Z,101538.25
2022-08-20T06:37:31.897Z,101539.09
2022-08-20T06:40:55.734Z,101542.91
2022-08-20T06:44:19.922Z,101548.16
2022-08-20T06:47:42.742Z,101553.34
2022-08-20T06:51:05.796Z,101562.09
2022-08-20T06:54:29.737Z,101560.94
2022-08-20T06:57:52.902Z,101566.56
2022-08-20T07:01:16.050Z,101560.84
2022-08-20T07:04:39.830Z,101572.09
2022-08-20T07:08:04.803Z,101573.41
2022-08-20T07:11:29.004Z,101586.88
2022-08-20T07:14:51.844Z,101586.22
2022-08-20T07:18:15.826Z,101590.72
2022-08-20T07:21:51.783Z,101597.06
2022-08-20T07:25:15.802Z,101598.41
2022-08-20T07:28:40.773Z,101608.03
2022-08-20T07:32:32.792Z,101608.78
2022-08-20T07:36:00.787Z,101605.44
2022-08-20T07:39:23.808Z,101595.38
2022-08-20T07:42:47.793Z,101609.22
2022-08-20T07:46:16.954Z,101605.75
2022-08-20T07:49:39.777Z,101614.34
2022-08-20T07:53:02.895Z,101625.72
2022-08-20T07:56:27.964Z,101626.16
2022-08-20T07:59:54.836Z,101639.03
2022-08-20T08:03:18.928Z,101636.56
2022-08-20T08:07:03.814Z,101637.81
2022-08-20T08:10:27.818Z,101639.81
2022-08-20T08:13:53.783Z,101636.25
2022-08-20T08:17:19.833Z,101637.28
2022-08-20T08:20:46.980Z,101641.53
2022-08-20T08:24:10.826Z,101641.97
2022-08-20T08:27:33.812Z,101646.81
2022-08-20T08:30:56.841Z,101647.88
2022-08-20T08:34:19.805Z,101652.91
2022-08-20T08:37:42.840Z,101655.94
2022-08-20T08:41:07.842Z,101665.16
2022-08-20T08:44:32.783Z,101664.81
2022-08-20T08:47:55.814Z,101666.47
2022-08-20T08:51:22.791Z,101678.47
2022-08-20T08:54:46.920Z,101680.44
2022-08-20T08:58:17.244Z,101676.50
2022-08-20T09:01:55.696Z,101682.69
2022-08-20T09:05:27.841Z,101684.06
2022-08-20T09:08:56.893Z,101686.13
2022-08-20T09:12:21.885Z,101689.66
2022-08-20T09:15:44.878Z,101682.78
2022-08-20T09:19:08.864Z,101690.97
2022-08-20T09:22:33.805Z,101697.38
2022-08-20T09:25:56.884Z,101700.88
2022-08-20T09:29:19.875Z,101700.13
2022-08-20T09:32:42.872Z,101695.88
2022-08-20T09:36:32.180Z,101691.88
2022-08-20T09:39:50.898Z,101703.56
2022-08-20T09:43:13.856Z,101700.63
2022-08-20T09:46:36.868Z,101699.63
2022-08-20T09:49:59.796Z,101703.22
2022-08-20T09:53:22.850Z,101697.47
2022-08-20T09:56:45.825Z,101704.44
2022-08-20T10:00:20.815Z,101704.84
2022-08-20T10:03:43.894Z,101705.63
2022-08-20T10:07:00.450Z,101701.72
2022-08-20T10:10:18.901Z,101703.19
2022-08-20T10:13:41.849Z,101698.59
2022-08-20T10:17:09.888Z,101698.34
2022-08-20T10:20:32.850Z,101700.22
2022-08-20T10:23:55.892Z,101695.88
2022-08-20T10:27:19.828Z,101698.44
2022-08-20T10:30:42.895Z,101712.88
2022-08-20T10:34:06.865Z,101702.22
2022-08-20T10:37:33.906Z,101696.47
2022-08-20T10:40:56.862Z,101702.94
2022-08-20T10:44:18.917Z,101699.06
2022-08-20T10:47:43.895Z,101703.19
2022-08-20T10:51:06.868Z,101701.13
2022-08-20T10:54:30.842Z,101707.34
2022-08-20T10:57:54.862Z,101702.75
2022-08-20T11:01:31.439Z,101713.94
2022-08-20T11:04:55.894Z,101703.47
2022-08-20T11:08:13.771Z,101705.44
2022-08-20T11:11:30.879Z,101705.56
2022-08-20T11:14:53.856Z,101708.66
2022-08-20T11:18:16.908Z,101707.47
2022-08-20T11:21:39.886Z,101703.25
2022-08-20T11:25:02.922Z,101697.94
2022-08-20T11:28:31.935Z,101693.59
2022-08-20T11:31:54.906Z,101703.81
2022-08-20T11:39:00.933Z,101698.66
2022-08-20T11:42:23.891Z,101702.31
2022-08-20T11:45:47.892Z,101704.06
2022-08-20T11:49:10.899Z,101702.06
2022-08-20T11:52:33.899Z,101700.97
2022-08-20T11:55:55.888Z,101700.53
2022-08-20T11:59:18.917Z,101700.78
2022-08-20T12:02:41.989Z,101705.94
2022-08-20T12:06:05.911Z,101705.22
2022-08-20T12:09:28.946Z,101705.72
2022-08-20T12:12:51.935Z,101692.84
2022-08-20T12:16:18.937Z,101689.19
2022-08-20T12:19:42.929Z,101685.53
2022-08-20T12:23:07.381Z,101681.81
2022-08-20T12:26:31.905Z,101693.47
2022-08-20T12:29:54.965Z,101695.56
2022-08-20T12:33:17.943Z,101700.09
2022-08-20T12:36:40.971Z,101696.97
2022-08-20T12:40:05.040Z,101700.53
2022-08-20T12:43:28.970Z,101700.53
2022-08-20T12:46:51.983Z,101699.34
2022-08-20T12:50:15.915Z,101699.50
2022-08-20T12:53:37.963Z,101696.81
2022-08-20T12:57:00.948Z,101697.75
2022-08-20T13:00:31.973Z,101692.81
2022-08-20T13:03:55.940Z,101682.81
2022-08-20T13:07:18.974Z,101680.31
2022-08-20T13:10:37.517Z,101679.38
2022-08-20T13:13:55.987Z,101681.13
2022-08-20T13:17:19.948Z,101684.44
2022-08-20T13:20:52.962Z,101683.25
2022-08-20T13:24:17.929Z,101690.47
2022-08-20T13:27:41.002Z,101682.47
2022-08-20T13:31:03.978Z,101684.91
2022-08-20T13:34:26.002Z,101680.22
2022-08-20T13:37:48.959Z,101676.09
2022-08-20T13:41:12.942Z,101680.72
2022-08-20T13:44:36.989Z,101675.41
2022-08-20T13:48:00.956Z,101680.00
2022-08-20T13:51:27.243Z,101679.88
2022-08-20T13:54:53.960Z,101673.41
2022-08-20T13:58:22.030Z,101680.59
2022-08-20T14:01:44.982Z,101676.22
2022-08-20T14:05:09.026Z,101669.38
2022-08-20T14:08:34.935Z,101667.28
2022-08-20T14:11:58.026Z,101663.28
2022-08-20T14:15:21.990Z,101658.13
2022-08-20T14:18:45.001Z,101660.97
2022-08-20T14:22:12.964Z,101664.50
2022-08-20T14:25:36.996Z,101669.69
2022-08-20T14:28:59.987Z,101660.38
2022-08-20T14:32:23.007Z,101667.44
2022-08-20T14:35:46.992Z,101663.94
2022-08-20T14:39:10.018Z,101667.94
2022-08-20T14:42:34.994Z,101659.34
2022-08-20T14:45:58.014Z,101649.69
2022-08-20T14:49:20.971Z,101659.22
2022-08-20T14:52:45.007Z,101648.97
2022-08-20T14:56:07.987Z,101642.53
2022-08-20T14:59:32.026Z,101641.22
2022-08-20T15:02:56.150Z,101645.94
2022-08-20T15:06:21.776Z,101643.81
2022-08-20T15:09:49.997Z,101645.91
2022-08-20T15:13:14.002Z,101648.25
2022-08-20T15:16:36.988Z,101649.06
2022-08-20T15:20:00.035Z,101654.00
2022-08-20T15:23:23.047Z,101661.44
2022-08-20T15:26:46.026Z,101666.50
2022-08-20T15:30:09.033Z,101664.00
2022-08-20T15:33:33.020Z,101655.31
2022-08-20T15:36:57.007Z,101657.09
2022-08-20T15:40:21.718Z,101659.66
2022-08-20T15:43:47.988Z,101660.81
2022-08-20T15:47:11.007Z,101661.97
2022-08-20T15:50:37.010Z,101664.66
2022-08-20T15:54:12.017Z,101655.56
2022-08-20T15:57:40.991Z,101664.09
2022-08-20T16:01:24.850Z,101664.69
2022-08-20T16:04:58.976Z,101672.19
2022-08-20T16:08:29.046Z,101659.97
2022-08-20T16:12:18.005Z,101671.66
2022-08-20T16:15:48.864Z,101665.25
2022-08-20T16:19:12.961Z,101667.00
2022-08-20T16:22:36.004Z,101663.66
2022-08-20T16:26:10.973Z,101667.88
2022-08-20T16:29:35.027Z,101667.44
2022-08-20T16:32:59.022Z,101653.72
2022-08-20T16:36:29.041Z,101663.41
2022-08-20T16:40:04.078Z,101657.94
2022-08-20T16:43:39.006Z,101658.97
2022-08-20T16:47:09.840Z,101655.69
2022-08-20T16:50:39.055Z,101649.88
2022-08-20T16:54:02.029Z,101651.81
2022-08-20T16:57:26.017Z,101647.25
2022-08-20T17:00:49.092Z,101648.16
2022-08-20T17:04:12.023Z,101652.56
2022-08-20T17:07:43.227Z,101655.38
2022-08-20T17:11:10.006Z,101661.69
2022-08-20T17:14:34.069Z,101663.63
2022-08-20T17:18:07.018Z,101661.94
2022-08-20T17:21:41.029Z,101672.63
2022-08-20T17:25:03.998Z,101675.69
2022-08-20T17:28:35.151Z,101669.41
2022-08-20T17:32:04.011Z,101666.84
2022-08-20T17:35:27.080Z,101679.09
2022-08-20T17:39:01.146Z,101675.97
2022-08-20T17:42:26.141Z,101685.03
2022-08-20T17:45:53.064Z,101688.41
2022-08-20T17:49:17.156Z,101695.97
2022-08-20T17:52:42.038Z,101690.44
2022-08-20T17:56:00.958Z,101697.78
2022-08-20T17:59:59.607Z,101692.22
2022-08-20T18:03:14.055Z,101690.44
2022-08-20T18:06:40.157Z,101698.16
2022-08-20T18:10:05.131Z,101694.94
2022-08-20T18:13:35.033Z,101696.28
2022-08-20T18:17:10.073Z,101706.41
2022-08-20T18:20:38.649Z,101703.88
2022-08-20T18:24:04.069Z,101699.56
2022-08-20T18:27:30.090Z,101714.50
2022-08-20T18:31:02.048Z,101706.28
2022-08-20T18:34:27.065Z,101706.16
2022-08-20T18:37:54.068Z,101708.09
2022-08-20T18:41:23.144Z,101718.38
2022-08-20T18:44:53.156Z,101716.72
2022-08-20T18:48:18.199Z,101717.19
2022-08-20T18:51:50.070Z,101730.38
2022-08-20T18:55:15.078Z,101728.03
2022-08-20T18:58:46.206Z,101743.34
2022-08-20T19:02:11.140Z,101735.53
2022-08-20T19:05:39.096Z,101737.03
2022-08-20T19:09:20.159Z,101741.09
2022-08-20T19:12:50.077Z,101736.97
2022-08-20T19:16:23.242Z,101747.91
2022-08-20T19:19:46.098Z,101746.59
2022-08-20T19:23:09.119Z,101748.28
2022-08-20T19:26:34.097Z,101749.31
2022-08-20T19:30:04.289Z,101750.63
2022-08-20T19:33:27.072Z,101753.22
2022-08-20T19:36:54.246Z,101760.41
2022-08-20T19:40:22.088Z,101757.13
2022-08-20T19:43:52.105Z,101765.06
2022-08-20T19:47:19.894Z,101764.38
2022-08-20T19:50:43.123Z,101764.88
2022-08-20T19:54:06.140Z,101764.13
2022-08-20T19:57:30.085Z,101763.63
2022-08-20T20:00:57.263Z,101757.00
2022-08-20T20:04:23.515Z,101756.53
2022-08-20T20:08:03.102Z,101762.38
2022-08-20T20:11:31.092Z,101773.81
2022-08-20T20:14:54.100Z,101772.88
2022-08-20T20:18:17.085Z,101782.28
2022-08-20T20:21:41.225Z,101775.94
2022-08-20T20:25:13.123Z,101784.63
2022-08-20T20:28:38.239Z,101785.13
2022-08-20T20:32:05.121Z,101781.97
2022-08-20T20:35:45.243Z,101777.38
2022-08-20T20:39:19.126Z,101777.59
2022-08-20T20:42:43.105Z,101776.88
2022-08-20T20:46:29.269Z,101781.84
2022-08-20T20:50:07.102Z,101785.84
2022-08-20T20:53:53.235Z,101785.50
2022-08-20T20:57:19.099Z,101779.97
2022-08-20T21:00:59.253Z,101778.91
2022-08-20T21:04:22.103Z,101786.56
2022-08-20T21:07:46.152Z,101792.56
2022-08-20T21:11:14.148Z,101783.00
2022-08-20T21:14:37.148Z,101774.31
2022-08-20T21:18:00.285Z,101776.06
2022-08-20T21:21:24.274Z,101773.84
2022-08-20T21:24:48.139Z,101753.13
2022-08-20T21:28:12.166Z,101750.75
2022-08-20T21:31:35.133Z,101755.13
2022-08-20T21:34:59.158Z,101760.50
2022-08-20T21:38:22.124Z,101756.72
2022-08-20T21:41:45.308Z,101767.69
2022-08-20T21:45:08.143Z,101758.16
2022-08-20T21:48:31.187Z,101765.47
2022-08-20T21:51:55.256Z,101753.44
2022-08-20T21:55:19.311Z,101762.16
2022-08-20T21:58:42.129Z,101756.72
2022-08-20T22:02:09.164Z,101752.63
2022-08-20T22:05:32.121Z,101758.38
2022-08-20T22:08:55.197Z,101755.88
2022-08-20T22:12:18.398Z,101756.22
2022-08-20T22:15:42.260Z,101753.66
2022-08-20T22:19:06.316Z,101753.31
2022-08-20T22:22:29.298Z,101751.88
2022-08-20T22:25:52.206Z,101753.28
2022-08-20T22:29:09.834Z,101755.03
2022-08-20T22:32:33.458Z,101760.03
2022-08-20T22:36:11.133Z,101750.66
2022-08-20T22:39:35.309Z,101748.50
2022-08-20T22:42:58.518Z,101762.25
2022-08-20T22:46:23.426Z,101762.81
2022-08-20T22:49:52.288Z,101758.69
2022-08-20T22:53:16.221Z,101752.81
2022-08-20T22:56:40.950Z,101756.81
2022-08-20T23:00:05.308Z,101748.78
2022-08-20T23:03:39.904Z,101760.31
2022-08-20T23:07:04.187Z,101755.28
2022-08-20T23:10:27.148Z,101746.00
2022-08-20T23:13:50.216Z,101732.25
2022-08-20T23:17:15.286Z,101723.25
2022-08-20T23:20:38.277Z,101729.44
2022-08-20T23:24:02.230Z,101722.44
2022-08-20T23:27:27.186Z,101729.81
2022-08-20T23:30:50.211Z,101722.44
2022-08-20T23:34:13.183Z,101720.81
2022-08-20T23:37:36.267Z,101718.31
2022-08-20T23:40:59.204Z,101714.75
2022-08-20T23:44:26.196Z,101712.06
2022-08-20T23:47:50.298Z,101700.34
2022-08-20T23:51:13.227Z,101706.16
2022-08-20T23:54:36.304Z,101687.16
2022-08-20T23:57:58.319Z,101692.97
